Time;durP1;ratioP1;P1;durP2;ratioP2;P2;SDS_P1;SDS_P2;PMS_P1;PMS_P2;Temp;Humidity;BMP_temperature;BMP_pressure;BME280_temperature;BME280_humidity;BME280_pressure;Samples;Min_cycle;Max_cycle;Signal;HPM_P1;HPM_P2
2021/12/01 00:01:11;;;;;;;9.45;1.40;;;10.00;99.90;;;;;;4989750;28;20046;-71
2021/12/01 00:03:40;;;;;;;5.28;1.25;;;10.00;99.90;;;;;;4988174;28;20046;-71
2021/12/01 00:06:10;;;;;;;9.82;1.38;;;10.00;99.90;;;;;;4989497;28;20050;-73
2021/12/01 00:08:37;;;;;;;6.45;1.45;;;10.00;99.90;;;;;;4990068;28;20109;-71
2021/12/01 00:11:04;;;;;;;9.70;1.05;;;10.00;99.90;;;;;;4993355;28;20050;-71
2021/12/01 00:13:33;;;;;;;8.82;1.50;;;10.00;99.90;;;;;;4993422;28;20425;-73
2021/12/01 00:16:00;;;;;;;11.18;1.38;;;9.90;99.90;;;;;;4991225;28;20376;-71
2021/12/01 00:18:28;;;;;;;8.00;2.03;;;9.90;99.90;;;;;;4986603;28;20060;-74
2021/12/01 00:20:56;;;;;;;11.73;1.67;;;10.00;99.90;;;;;;4981126;28;20054;-72
2021/12/01 00:23:24;;;;;;;12.20;1.55;;;9.90;99.90;;;;;;4986917;28;20105;-72
2021/12/01 00:25:51;;;;;;;11.98;1.70;;;9.90;99.90;;;;;;4987633;28;20097;-72
2021/12/01 00:28:18;;;;;;;14.98;1.55;;;9.90;99.90;;;;;;4993238;28;20430;-72
2021/12/01 00:30:45;;;;;;;10.32;1.52;;;9.90;99.90;;;;;;4991670;28;20046;-75
2021/12/01 00:33:14;;;;;;;11.25;1.58;;;9.90;99.90;;;;;;4987348;28;20097;-73
2021/12/01 00:35:41;;;;;;;8.63;1.90;;;9.90;99.90;;;;;;5005159;28;20062;-74
2021/12/01 00:38:09;;;;;;;11.90;1.90;;;9.90;99.90;;;;;;4991942;28;20043;-72
2021/12/01 00:40:36;;;;;;;17.17;2.22;;;9.90;99.90;;;;;;4978409;28;20050;-72
2021/12/01 00:43:03;;;;;;;15.07;2.05;;;9.90;99.90;;;;;;5007407;28;21799;-72
2021/12/01 00:45:32;;;;;;;9.25;1.67;;;9.90;99.90;;;;;;4991929;28;20112;-74
2021/12/01 00:47:59;;;;;;;14.98;2.17;;;9.80;99.90;;;;;;4992517;28;20055;-72
2021/12/01 00:50:29;;;;;;;11.07;1.60;;;9.80;99.90;;;;;;4993169;28;20116;-71
2021/12/01 00:53:00;;;;;;;20.50;2.30;;;9.90;99.90;;;;;;4975103;28;20055;-71
2021/12/01 00:55:27;;;;;;;25.67;2.42;;;9.80;99.90;;;;;;4989447;28;20073;-74
2021/12/01 00:57:54;;;;;;;10.07;1.63;;;9.90;99.90;;;;;;4988609;28;20085;-72
2021/12/01 01:00:25;;;;;;;21.73;1.90;;;9.90;99.90;;;;;;4982332;28;20105;-71
2021/12/01 01:02:53;;;;;;;12.30;1.85;;;9.90;99.90;;;;;;4993381;28;20069;-71
2021/12/01 01:05:20;;;;;;;13.02;2.03;;;9.90;99.90;;;;;;4993839;28;20090;-70
2021/12/01 01:07:47;;;;;;;15.25;1.65;;;9.90;99.90;;;;;;4985054;28;20082;-71
2021/12/01 01:18:34;;;;;;;16.97;2.20;;;9.90;99.90;;;;;;4990939;28;20129;-71
2021/12/01 01:21:02;;;;;;;21.13;2.03;;;9.90;99.90;;;;;;4989135;28;20298;-72
2021/12/01 01:23:29;;;;;;;19.33;2.72;;;9.90;99.90;;;;;;4989227;28;20422;-71
2021/12/01 01:25:58;;;;;;;18.50;1.92;;;9.90;99.90;;;;;;4993125;28;20105;-74
2021/12/01 01:28:26;;;;;;;16.45;2.38;;;9.90;99.90;;;;;;4984984;28;20039;-72
2021/12/01 01:30:53;;;;;;;11.32;1.60;;;9.90;99.90;;;;;;5001525;28;20054;-73
2021/12/01 01:33:21;;;;;;;12.30;1.55;;;9.90;99.90;;;;;;4992752;28;20046;-72
2021/12/01 01:35:49;;;;;;;11.35;1.90;;;9.90;99.90;;;;;;4986802;28;20074;-73
2021/12/01 01:38:16;;;;;;;6.18;1.88;;;9.90;99.90;;;;;;4987112;28;20069;-73
2021/12/01 01:40:43;;;;;;;11.77;1.63;;;9.90;99.90;;;;;;4992483;28;20050;-73
2021/12/01 01:43:11;;;;;;;8.88;1.80;;;9.90;99.90;;;;;;4986961;28;20158;-72
2021/12/01 01:45:38;;;;;;;20.60;1.80;;;9.90;99.90;;;;;;4991026;28;20042;-71
2021/12/01 01:48:10;;;;;;;12.98;1.65;;;9.90;99.90;;;;;;4988343;28;20116;-71
2021/12/01 01:50:40;;;;;;;13.32;1.63;;;9.90;99.90;;;;;;4991668;28;20583;-72
2021/12/01 01:53:13;;;;;;;15.27;2.05;;;10.00;99.90;;;;;;4992150;28;20051;-70
2021/12/01 01:55:43;;;;;;;6.63;1.20;;;10.00;99.90;;;;;;4989720;28;20046;-71
2021/12/01 01:58:11;;;;;;;4.38;1.25;;;10.00;99.90;;;;;;5004830;28;20473;-72
2021/12/01 02:01:06;;;;;;;13.38;1.77;;;10.10;99.90;;;;;;4989120;28;20100;-73
2021/12/01 02:03:26;;;;;;;20.17;2.53;;;10.10;99.90;;;;;;4991407;28;20058;-72
2021/12/01 02:05:55;;;;;;;12.82;2.00;;;10.10;99.90;;;;;;4990390;28;20489;-74
2021/12/01 02:08:29;;;;;;;19.45;2.38;;;10.10;99.90;;;;;;4991567;28;20047;-72
2021/12/01 02:11:00;;;;;;;18.77;2.20;;;10.20;99.90;;;;;;4989891;28;20105;-70
2021/12/01 02:13:28;;;;;;;42.50;4.28;;;10.20;99.90;;;;;;4989423;28;20089;-72
2021/12/01 02:15:56;;;;;;;25.73;3.33;;;10.10;99.90;;;;;;4987227;28;20399;-71
2021/12/01 02:18:23;;;;;;;28.58;3.22;;;10.10;99.90;;;;;;5000423;28;20787;-75
2021/12/01 02:21:05;;;;;;;13.77;2.22;;;10.20;99.90;;;;;;4988410;28;20043;-73
2021/12/01 02:23:35;;;;;;;11.68;2.10;;;10.30;99.90;;;;;;4991059;28;20466;-72
2021/12/01 02:26:04;;;;;;;20.40;2.00;;;10.30;99.90;;;;;;4987687;28;20104;-72
2021/12/01 02:28:32;;;;;;;26.67;2.40;;;10.30;99.90;;;;;;4988142;28;20118;-71
2021/12/01 02:30:59;;;;;;;22.60;2.55;;;10.30;99.90;;;;;;4991367;28;20073;-74
2021/12/01 02:33:27;;;;;;;30.92;3.17;;;10.30;99.90;;;;;;4988075;28;20105;-71
2021/12/01 02:35:54;;;;;;;25.58;3.53;;;10.40;99.90;;;;;;4987748;28;20089;-73
2021/12/01 02:38:22;;;;;;;28.42;3.22;;;10.40;99.90;;;;;;4997331;28;20046;-72
2021/12/01 02:40:49;;;;;;;36.88;3.42;;;10.40;99.90;;;;;;4991826;28;20506;-72
2021/12/01 02:43:17;;;;;;;34.47;3.58;;;10.40;99.90;;;;;;4985542;28;20097;-73
2021/12/01 02:45:45;;;;;;;35.80;3.88;;;10.40;99.90;;;;;;4989749;28;20042;-72
2021/12/01 02:48:14;;;;;;;46.75;4.07;;;10.40;99.90;;;;;;4984588;28;20101;-71
2021/12/01 02:50:42;;;;;;;31.52;3.47;;;10.50;99.90;;;;;;4978947;28;20124;-72
2021/12/01 02:53:09;;;;;;;34.08;3.83;;;10.40;99.90;;;;;;4986902;28;20689;-73
2021/12/01 02:55:48;;;;;;;31.85;3.42;;;10.50;99.90;;;;;;4983331;28;20742;-71
2021/12/01 02:58:18;;;;;;;28.80;3.00;;;10.50;99.90;;;;;;4991555;28;20105;-72
2021/12/01 03:00:45;;;;;;;34.50;3.53;;;10.50;99.90;;;;;;4990202;28;20043;-71
2021/12/01 03:03:13;;;;;;;37.03;3.47;;;10.50;99.90;;;;;;4989301;28;20054;-73
2021/12/01 03:05:42;;;;;;;29.45;3.83;;;10.50;99.90;;;;;;4989109;28;20038;-71
2021/12/01 03:08:09;;;;;;;25.38;2.90;;;10.50;99.90;;;;;;4997810;28;20058;-72
2021/12/01 03:10:36;;;;;;;32.38;3.00;;;10.60;99.90;;;;;;4990712;28;20093;-71
2021/12/01 03:13:03;;;;;;;18.65;2.72;;;10.60;99.90;;;;;;4984051;28;20596;-73
2021/12/01 03:15:30;;;;;;;27.75;3.08;;;10.50;99.90;;;;;;4985775;28;20458;-72
2021/12/01 03:17:59;;;;;;;34.42;3.17;;;10.60;99.90;;;;;;5001826;28;20042;-72
2021/12/01 03:20:26;;;;;;;24.60;2.95;;;10.60;99.90;;;;;;5000765;28;20093;-73
2021/12/01 03:22:53;;;;;;;25.25;2.60;;;10.60;99.90;;;;;;4981377;28;20565;-73
2021/12/01 03:25:22;;;;;;;19.88;2.05;;;10.60;99.90;;;;;;4988653;28;20066;-73
2021/12/01 03:27:49;;;;;;;25.10;2.65;;;10.60;99.90;;;;;;4988969;28;20403;-73
2021/12/01 03:30:16;;;;;;;26.17;2.83;;;10.70;99.90;;;;;;4989469;28;20105;-73
2021/12/01 03:32:42;;;;;;;28.08;2.63;;;10.60;99.90;;;;;;4990728;28;20089;-72
2021/12/01 03:35:12;;;;;;;25.95;2.30;;;10.60;99.90;;;;;;4983427;28;20596;-72
2021/12/01 03:37:40;;;;;;;27.55;2.83;;;10.70;99.90;;;;;;5004207;28;20050;-71
2021/12/01 03:40:11;;;;;;;23.52;2.15;;;10.70;99.90;;;;;;4990447;28;20434;-73
2021/12/01 03:42:38;;;;;;;15.70;1.80;;;10.70;99.90;;;;;;4990842;28;20053;-73
2021/12/01 03:45:06;;;;;;;23.75;2.78;;;10.80;99.90;;;;;;4985972;28;20749;-70
2021/12/01 03:47:34;;;;;;;36.03;3.03;;;10.90;99.90;;;;;;4992654;28;20058;-71
2021/12/01 03:50:01;;;;;;;23.90;2.70;;;10.90;99.90;;;;;;4989039;28;20101;-72
2021/12/01 03:52:28;;;;;;;20.88;2.60;;;10.90;99.90;;;;;;4993958;28;20054;-71
2021/12/01 03:54:55;;;;;;;30.58;2.90;;;10.90;99.90;;;;;;4993843;28;20101;-72
2021/12/01 03:57:22;;;;;;;26.52;3.17;;;10.90;99.90;;;;;;4990552;28;20124;-72
2021/12/01 03:59:49;;;;;;;41.85;3.92;;;11.00;99.90;;;;;;4990567;28;20101;-73
2021/12/01 04:02:17;;;;;;;38.08;3.78;;;11.00;99.90;;;;;;4991994;28;20678;-72
2021/12/01 04:04:45;;;;;;;44.17;4.88;;;10.90;99.90;;;;;;4991488;28;20053;-72
2021/12/01 04:07:12;;;;;;;55.38;5.15;;;10.90;99.90;;;;;;5006164;28;20046;-72
2021/12/01 04:09:42;;;;;;;58.88;6.00;;;10.90;99.90;;;;;;4991348;28;20572;-72
2021/12/01 04:12:09;;;;;;;52.72;5.75;;;10.80;99.90;;;;;;4993518;28;20510;-72
2021/12/01 04:14:37;;;;;;;66.32;7.50;;;10.80;99.90;;;;;;4990288;28;20077;-73
2021/12/01 04:17:05;;;;;;;58.90;6.57;;;10.80;99.90;;;;;;4993842;28;20058;-72
2021/12/01 04:19:32;;;;;;;54.65;6.03;;;10.80;99.90;;;;;;4994047;28;20042;-72
2021/12/01 04:21:59;;;;;;;50.83;5.82;;;10.80;99.90;;;;;;4992041;28;20105;-73
2021/12/01 04:24:26;;;;;;;46.72;5.45;;;10.90;99.90;;;;;;4986176;28;20059;-72
2021/12/01 04:26:53;;;;;;;50.72;7.72;;;10.90;99.90;;;;;;4994080;28;20046;-72
2021/12/01 04:29:20;;;;;;;43.05;5.75;;;10.90;99.90;;;;;;4990025;28;20165;-72
2021/12/01 04:31:48;;;;;;;47.90;6.35;;;10.90;99.90;;;;;;4999529;28;20101;-73
2021/12/01 04:34:15;;;;;;;51.00;5.90;;;11.00;99.90;;;;;;4990776;28;20046;-73
2021/12/01 04:36:43;;;;;;;59.10;6.53;;;11.00;99.90;;;;;;4988694;28;20050;-73
2021/12/01 04:39:14;;;;;;;56.67;5.97;;;10.90;99.90;;;;;;4994914;28;20125;-73
2021/12/01 04:41:53;;;;;;;65.05;7.30;;;10.80;99.90;;;;;;4992463;28;20101;-71
2021/12/01 04:44:21;;;;;;;53.65;6.82;;;10.80;99.90;;;;;;4990451;28;20948;-73
2021/12/01 04:46:52;;;;;;;54.30;6.10;;;10.70;99.90;;;;;;4994240;28;20771;-73
2021/12/01 04:49:20;;;;;;;52.40;7.07;;;10.70;99.90;;;;;;4991980;28;20046;-73
2021/12/01 04:51:55;;;;;;;65.97;8.00;;;10.70;99.90;;;;;;4991419;28;20473;-73
2021/12/01 04:54:24;;;;;;;77.20;8.88;;;10.80;99.90;;;;;;4987253;28;20054;-73
2021/12/01 04:56:52;;;;;;;75.63;7.90;;;10.70;99.90;;;;;;5000382;28;20477;-72
2021/12/01 04:59:20;;;;;;;68.68;7.40;;;10.80;99.90;;;;;;4984376;28;20035;-73
2021/12/01 05:01:52;;;;;;;76.03;7.20;;;10.80;99.90;;;;;;4981635;28;20535;-73
2021/12/01 05:04:19;;;;;;;70.93;8.27;;;10.80;99.90;;;;;;4986335;28;20043;-71
2021/12/01 05:06:46;;;;;;;68.95;7.63;;;10.90;99.90;;;;;;4990987;28;20089;-73
2021/12/01 05:09:14;;;;;;;79.82;9.77;;;10.80;99.90;;;;;;4989569;28;20572;-74
2021/12/01 05:11:41;;;;;;;35.92;4.38;;;10.80;99.90;;;;;;4989324;28;20070;-74
2021/12/01 05:14:11;;;;;;;50.75;5.25;;;10.60;99.90;;;;;;4993019;28;20042;-73
2021/12/01 05:16:40;;;;;;;50.13;5.40;;;10.10;99.90;;;;;;4986894;28;20185;-76
2021/12/01 05:19:10;;;;;;;57.08;6.85;;;9.90;99.90;;;;;;4989909;28;20069;-71
2021/12/01 05:21:38;;;;;;;74.65;7.10;;;9.80;99.90;;;;;;5006674;28;20796;-71
2021/12/01 05:24:06;;;;;;;64.15;7.03;;;10.00;99.90;;;;;;4992268;28;20510;-74
2021/12/01 05:26:34;;;;;;;72.82;8.40;;;10.10;99.90;;;;;;4991284;28;20093;-75
2021/12/01 05:29:01;;;;;;;49.15;7.30;;;10.10;99.90;;;;;;5008279;28;20104;-73
2021/12/01 05:31:28;;;;;;;54.85;6.47;;;10.10;99.90;;;;;;4988013;28;20530;-74
2021/12/01 05:33:55;;;;;;;44.40;4.95;;;10.10;99.90;;;;;;4985310;28;20055;-73
2021/12/01 05:36:22;;;;;;;45.97;5.22;;;10.10;99.90;;;;;;4987546;28;20058;-74
2021/12/01 05:38:49;;;;;;;57.53;6.18;;;10.00;99.90;;;;;;4988074;28;20051;-71
2021/12/01 05:41:16;;;;;;;53.55;6.80;;;10.10;99.90;;;;;;4989806;28;20046;-72
2021/12/01 05:43:43;;;;;;;48.58;5.57;;;10.20;99.90;;;;;;4990200;28;20055;-73
2021/12/01 05:46:11;;;;;;;41.92;4.72;;;10.30;99.90;;;;;;4989174;28;20108;-72
2021/12/01 05:48:38;;;;;;;45.97;5.25;;;10.20;99.90;;;;;;4989666;28;20043;-72
2021/12/01 05:51:05;;;;;;;37.03;4.47;;;10.20;99.90;;;;;;5001573;28;20513;-71
2021/12/01 05:53:32;;;;;;;56.38;5.45;;;10.30;99.90;;;;;;4983754;28;20049;-72
2021/12/01 05:55:59;;;;;;;38.67;5.72;;;10.30;99.90;;;;;;4988477;28;20055;-73
2021/12/01 05:58:26;;;;;;;45.97;4.95;;;10.20;99.90;;;;;;4991712;28;20407;-71
2021/12/01 06:00:53;;;;;;;37.53;5.28;;;10.20;99.90;;;;;;4989790;28;20477;-74
2021/12/01 06:03:20;;;;;;;50.78;6.05;;;10.20;99.90;;;;;;5001067;28;20151;-72
2021/12/01 06:05:47;;;;;;;52.70;6.22;;;10.20;99.90;;;;;;4987517;28;20051;-72
2021/12/01 06:08:14;;;;;;;49.10;5.97;;;10.20;99.90;;;;;;4989024;28;20038;-71
2021/12/01 06:10:43;;;;;;;53.10;6.22;;;10.20;99.90;;;;;;4990878;28;20108;-72
2021/12/01 06:13:10;;;;;;;63.10;6.28;;;10.20;99.90;;;;;;4988150;28;20043;-71
2021/12/01 06:15:37;;;;;;;50.28;6.55;;;10.30;99.90;;;;;;4986080;28;20042;-73
2021/12/01 06:18:04;;;;;;;56.40;5.80;;;10.20;99.90;;;;;;4988788;28;20050;-73
2021/12/01 06:20:31;;;;;;;63.38;7.32;;;10.30;99.90;;;;;;4993316;28;20050;-72
2021/12/01 06:22:59;;;;;;;66.45;7.47;;;10.30;99.90;;;;;;4990981;28;20411;-72
2021/12/01 06:25:26;;;;;;;41.83;4.93;;;10.40;99.90;;;;;;4989695;28;20050;-72
2021/12/01 06:27:55;;;;;;;37.35;5.05;;;10.40;99.90;;;;;;4992269;28;20046;-72
2021/12/01 06:30:24;;;;;;;39.95;6.25;;;10.40;99.90;;;;;;4988716;28;20046;-72
2021/12/01 06:32:52;;;;;;;42.03;6.38;;;10.50;99.90;;;;;;4983326;28;20470;-72
2021/12/01 06:35:19;;;;;;;47.05;6.20;;;10.60;99.90;;;;;;4991622;28;20050;-73
2021/12/01 06:37:47;;;;;;;43.60;5.95;;;10.70;99.90;;;;;;4990167;28;20145;-73
2021/12/01 06:40:15;;;;;;;53.67;5.97;;;10.70;99.90;;;;;;4990887;28;20050;-72
2021/12/01 06:42:42;;;;;;;42.28;7.75;;;10.60;99.90;;;;;;4986053;28;20380;-73
2021/12/01 06:45:11;;;;;;;38.47;6.10;;;10.60;99.90;;;;;;4986960;28;20047;-71
2021/12/01 06:47:40;;;;;;;62.17;7.35;;;10.60;99.90;;;;;;4987624;28;20098;-72
2021/12/01 06:50:09;;;;;;;58.38;7.78;;;10.60;99.90;;;;;;4982651;28;20113;-70
2021/12/01 06:52:38;;;;;;;51.30;6.95;;;10.60;99.90;;;;;;4985926;28;20042;-72
2021/12/01 06:55:07;;;;;;;51.03;7.95;;;10.60;99.90;;;;;;4982400;28;20529;-72
2021/12/01 06:57:35;;;;;;;54.30;7.95;;;10.60;99.90;;;;;;4981020;28;20050;-71
2021/12/01 07:00:05;;;;;;;55.03;6.50;;;10.50;99.90;;;;;;4983564;28;20473;-71
2021/12/01 07:02:33;;;;;;;57.00;8.13;;;10.50;99.90;;;;;;4982208;28;20049;-71
2021/12/01 07:05:00;;;;;;;62.72;7.07;;;10.40;99.90;;;;;;4985762;28;20407;-71
2021/12/01 07:07:27;;;;;;;42.38;5.50;;;10.30;99.90;;;;;;4979168;28;20047;-71
2021/12/01 07:09:54;;;;;;;60.72;6.93;;;10.30;99.90;;;;;;4983233;28;20038;-72
2021/12/01 07:12:23;;;;;;;50.28;6.65;;;10.40;99.90;;;;;;4982526;28;20062;-72
2021/12/01 07:14:50;;;;;;;51.10;5.70;;;10.40;99.90;;;;;;4985881;28;20050;-72
2021/12/01 07:17:18;;;;;;;44.53;6.68;;;10.60;99.90;;;;;;4986614;28;20522;-71
2021/12/01 07:19:45;;;;;;;37.75;4.95;;;10.60;99.90;;;;;;5004885;28;20053;-71
2021/12/01 07:22:12;;;;;;;30.83;4.28;;;10.60;99.90;;;;;;4990413;28;20046;-72
2021/12/01 07:24:40;;;;;;;34.42;5.00;;;10.70;99.90;;;;;;4985037;28;20050;-71
2021/12/01 07:27:13;;;;;;;53.78;7.50;;;10.70;99.90;;;;;;4989076;28;20053;-72
2021/12/01 07:29:42;;;;;;;38.50;5.80;;;10.60;99.90;;;;;;4981730;28;20046;-71
2021/12/01 07:32:09;;;;;;;50.75;6.30;;;10.60;99.90;;;;;;4979693;28;20133;-71
2021/12/01 07:34:42;;;;;;;48.47;5.63;;;10.50;99.90;;;;;;4981585;28;20054;-70
2021/12/01 07:37:10;;;;;;;44.72;6.15;;;10.40;99.90;;;;;;4998622;28;20058;-70
2021/12/01 07:39:37;;;;;;;49.92;5.72;;;10.50;99.90;;;;;;4986373;28;20112;-72
2021/12/01 07:42:06;;;;;;;41.22;6.68;;;10.50;99.90;;;;;;4983144;28;20580;-70
2021/12/01 07:44:33;;;;;;;47.60;5.72;;;10.50;99.90;;;;;;4983763;28;20093;-71
2021/12/01 07:47:01;;;;;;;38.65;5.07;;;10.50;99.90;;;;;;4982474;28;20072;-72
2021/12/01 07:49:28;;;;;;;45.30;6.20;;;10.50;99.90;;;;;;4987766;28;20608;-71
2021/12/01 07:51:59;;;;;;;38.67;5.55;;;10.50;99.90;;;;;;4986587;28;20514;-71
2021/12/01 07:54:26;;;;;;;39.50;4.85;;;10.50;99.90;;;;;;4985508;28;20186;-72
2021/12/01 07:56:53;;;;;;;58.47;7.00;;;10.50;99.90;;;;;;4979986;28;20047;-71
2021/12/01 07:59:20;;;;;;;39.13;5.15;;;10.50;99.90;;;;;;4977416;28;20058;-71
2021/12/01 08:01:48;;;;;;;40.78;5.22;;;10.40;99.90;;;;;;4979791;28;20086;-71
2021/12/01 08:04:15;;;;;;;35.20;4.05;;;10.40;99.90;;;;;;4980393;28;20046;-72
2021/12/01 08:06:43;;;;;;;35.78;5.57;;;10.40;99.90;;;;;;4988722;28;20101;-73
2021/12/01 08:09:11;;;;;;;53.95;6.13;;;10.50;99.90;;;;;;4984982;28;20057;-71
2021/12/01 08:11:39;;;;;;;43.50;5.53;;;10.50;99.90;;;;;;4981482;28;20093;-72
2021/12/01 08:14:07;;;;;;;46.13;5.50;;;10.40;99.90;;;;;;4989131;28;20081;-72
2021/12/01 08:16:37;;;;;;;30.75;4.57;;;10.40;99.90;;;;;;4983784;28;20787;-72
2021/12/01 08:19:05;;;;;;;36.30;5.18;;;10.30;99.90;;;;;;4986653;28;20062;-73
2021/12/01 08:21:33;;;;;;;52.88;5.78;;;10.30;99.90;;;;;;4985585;28;20075;-72
2021/12/01 08:24:10;;;;;;;41.10;5.07;;;10.40;99.90;;;;;;4985395;28;20058;-72
2021/12/01 08:26:38;;;;;;;30.83;4.72;;;10.50;99.90;;;;;;4980044;28;20062;-73
2021/12/01 08:29:05;;;;;;;34.78;4.75;;;10.60;99.90;;;;;;4986383;28;20076;-70
2021/12/01 08:31:32;;;;;;;33.90;5.25;;;10.60;99.90;;;;;;4987036;28;20077;-72
2021/12/01 08:33:59;;;;;;;30.75;4.97;;;10.70;99.90;;;;;;4986315;28;20054;-72
2021/12/01 08:36:27;;;;;;;38.40;4.95;;;10.60;99.90;;;;;;4986435;28;20170;-72
2021/12/01 08:38:54;;;;;;;24.60;3.58;;;10.60;99.90;;;;;;4984521;28;20487;-73
2021/12/01 08:41:21;;;;;;;24.95;3.63;;;10.60;99.90;;;;;;4989598;28;20058;-72
2021/12/01 08:43:48;;;;;;;30.85;4.93;;;10.60;99.90;;;;;;4983493;28;20054;-71
2021/12/01 08:46:16;;;;;;;42.83;4.68;;;10.70;99.90;;;;;;4985980;28;20105;-74
2021/12/01 08:48:43;;;;;;;30.05;3.20;;;10.50;99.90;;;;;;4986521;28;20057;-73
2021/12/01 08:51:10;;;;;;;34.80;3.55;;;10.00;99.90;;;;;;4986521;28;20439;-72
2021/12/01 08:53:40;;;;;;;25.63;3.40;;;9.80;99.90;;;;;;4986745;28;20046;-73
2021/12/01 08:56:09;;;;;;;30.98;4.57;;;9.80;99.90;;;;;;4985740;28;20514;-70
2021/12/01 08:58:37;;;;;;;35.10;3.90;;;9.80;99.90;;;;;;4984155;28;20070;-71
2021/12/01 09:01:04;;;;;;;33.05;4.88;;;9.80;99.90;;;;;;4992136;28;20066;-70
2021/12/01 09:03:32;;;;;;;30.60;4.35;;;10.00;99.90;;;;;;4987006;28;20050;-71
2021/12/01 09:05:59;;;;;;;53.00;5.30;;;10.20;99.90;;;;;;4989526;28;20047;-71
2021/12/01 09:08:26;;;;;;;38.30;4.25;;;10.30;99.90;;;;;;4988400;28;20043;-71
2021/12/01 09:10:56;;;;;;;20.23;3.50;;;10.40;99.90;;;;;;4988026;28;20096;-71
2021/12/01 09:13:26;;;;;;;35.63;4.55;;;10.40;99.90;;;;;;4992517;28;20096;-72
2021/12/01 09:15:53;;;;;;;29.38;5.40;;;10.40;99.90;;;;;;4988045;28;20082;-72
2021/12/01 09:18:21;;;;;;;38.58;3.63;;;10.30;99.90;;;;;;4991924;28;20054;-71
2021/12/01 09:20:48;;;;;;;26.58;3.30;;;10.10;99.90;;;;;;4988588;28;20046;-73
2021/12/01 09:23:16;;;;;;;37.97;5.45;;;9.90;99.90;;;;;;4991797;28;20046;-71
2021/12/01 09:25:44;;;;;;;38.72;6.05;;;9.90;99.90;;;;;;4992934;28;20117;-70
2021/12/01 09:28:22;;;;;;;34.55;5.57;;;9.90;99.90;;;;;;4990437;28;20133;-71
2021/12/01 09:30:51;;;;;;;33.78;4.95;;;10.00;99.90;;;;;;4990444;28;20050;-71
2021/12/01 09:33:18;;;;;;;38.63;5.15;;;10.10;99.90;;;;;;4989343;28;20556;-73
2021/12/01 09:35:46;;;;;;;59.47;6.07;;;10.30;99.90;;;;;;5005894;28;20149;-70
2021/12/01 09:38:16;;;;;;;34.13;4.60;;;10.50;99.90;;;;;;4990537;28;20082;-73
2021/12/01 09:40:47;;;;;;;32.85;4.82;;;10.60;99.90;;;;;;4992423;28;20108;-72
2021/12/01 09:43:16;;;;;;;37.22;4.38;;;10.60;99.90;;;;;;4991979;28;20576;-71
2021/12/01 09:45:45;;;;;;;36.67;4.25;;;10.50;99.90;;;;;;4989786;28;20093;-71
2021/12/01 09:48:12;;;;;;;44.78;5.70;;;10.40;99.90;;;;;;4991279;28;20403;-73
2021/12/01 09:50:39;;;;;;;44.35;4.63;;;10.40;99.90;;;;;;4988270;28;20494;-72
2021/12/01 09:53:10;;;;;;;39.10;4.28;;;10.40;99.90;;;;;;4983632;28;20098;-72
2021/12/01 09:55:40;;;;;;;45.13;5.05;;;10.40;99.90;;;;;;4987908;28;20145;-70
2021/12/01 09:58:19;;;;;;;41.10;6.13;;;10.40;99.90;;;;;;4986469;28;20054;-71
2021/12/01 10:00:50;;;;;;;30.00;3.63;;;10.40;99.90;;;;;;5002040;28;20039;-72
2021/12/01 10:03:18;;;;;;;26.95;3.55;;;10.40;99.90;;;;;;4986685;28;20053;-71
2021/12/01 10:06:04;;;;;;;27.63;4.35;;;10.40;99.90;;;;;;4990394;28;20049;-75
2021/12/01 10:08:38;;;;;;;27.92;4.13;;;10.50;99.90;;;;;;4998643;28;20104;-71
2021/12/01 10:11:10;;;;;;;24.48;3.28;;;10.50;99.90;;;;;;4989690;28;20046;-73
2021/12/01 10:13:40;;;;;;;31.15;3.17;;;10.30;99.90;;;;;;4988370;28;20105;-72
2021/12/01 10:16:10;;;;;;;31.75;4.65;;;10.10;99.90;;;;;;4988535;28;20482;-72
2021/12/01 10:18:40;;;;;;;24.10;3.42;;;10.00;99.90;;;;;;4988404;28;20046;-72
2021/12/01 10:21:14;;;;;;;32.50;4.75;;;10.00;99.90;;;;;;4990179;28;20054;-73
2021/12/01 10:23:54;;;;;;;34.50;4.25;;;10.10;99.90;;;;;;4991898;28;20547;-72
2021/12/01 10:26:27;;;;;;;25.38;3.47;;;10.20;99.90;;;;;;5007809;28;20101;-71
2021/12/01 10:29:01;;;;;;;19.27;3.10;;;10.20;99.90;;;;;;4987343;28;20751;-72
2021/12/01 10:31:33;;;;;;;38.20;3.95;;;10.20;99.90;;;;;;4991641;28;20620;-71
2021/12/01 10:34:35;;;;;;;27.70;4.40;;;10.40;99.90;;;;;;4991615;28;20069;-72
2021/12/01 10:37:26;;;;;;;24.40;3.60;;;10.20;99.90;;;;;;4949333;28;20100;-72
2021/12/01 10:40:08;;;;;;;21.92;2.90;;;9.80;99.90;;;;;;4988473;28;20046;-70
2021/12/01 10:43:00;;;;;;;24.63;3.33;;;9.60;99.90;;;;;;4991093;28;20073;-71
2021/12/01 10:45:42;;;;;;;26.45;3.00;;;9.60;99.90;;;;;;4990722;28;20050;-72
2021/12/01 10:48:11;;;;;;;27.55;3.85;;;9.80;99.90;;;;;;4991267;28;20096;-73
2021/12/01 10:50:42;;;;;;;38.85;4.75;;;9.90;99.90;;;;;;4986961;28;20050;-73
2021/12/01 10:53:18;;;;;;;26.80;3.72;;;10.10;99.90;;;;;;4992348;28;20050;-72
2021/12/01 10:55:58;;;;;;;29.83;4.53;;;10.30;99.90;;;;;;4990409;28;20054;-73
2021/12/01 10:58:41;;;;;;;46.15;5.88;;;10.30;99.90;;;;;;4988906;28;20572;-72
2021/12/01 11:01:23;;;;;;;32.53;5.88;;;10.20;99.90;;;;;;4989126;28;20054;-71
2021/12/01 11:03:51;;;;;;;37.65;5.30;;;10.20;99.90;;;;;;4984862;28;20054;-71
2021/12/01 11:06:23;;;;;;;30.58;4.53;;;10.20;99.90;;;;;;4990018;28;20042;-72
2021/12/01 11:09:00;;;;;;;29.83;4.35;;;10.30;99.90;;;;;;4985484;28;20474;-71
2021/12/01 11:11:39;;;;;;;29.80;4.32;;;10.40;99.90;;;;;;4990661;28;20108;-71
2021/12/01 11:14:26;;;;;;;33.00;4.22;;;10.50;99.90;;;;;;4986654;28;20046;-73
2021/12/01 11:16:53;;;;;;;28.02;3.97;;;10.60;99.90;;;;;;4991731;28;20100;-73
2021/12/01 11:19:32;;;;;;;36.60;4.97;;;10.80;99.90;;;;;;4988023;28;20061;-72
2021/12/01 11:22:30;;;;;;;35.33;5.13;;;11.00;99.90;;;;;;4988397;28;20050;-71
2021/12/01 11:25:18;;;;;;;;;;;11.10;99.90;;;;;;4990920;28;20061;-72
2021/12/01 11:27:45;;;;;;;41.63;4.90;;;11.10;99.90;;;;;;4987693;28;20472;-72
2021/12/01 11:30:12;;;;;;;46.03;6.10;;;11.10;99.90;;;;;;4989427;28;20749;-73
2021/12/01 11:32:39;;;;;;;36.58;5.15;;;11.30;99.90;;;;;;4988626;28;20054;-70
2021/12/01 11:35:06;;;;;;;44.72;5.90;;;11.50;99.90;;;;;;4988712;28;20051;-71
2021/12/01 11:37:35;;;;;;;43.15;5.95;;;11.70;99.90;;;;;;4989956;28;20129;-71
2021/12/01 11:40:03;;;;;;;43.70;5.65;;;11.70;99.90;;;;;;4990544;28;20061;-71
2021/12/01 11:42:31;;;;;;;43.38;6.90;;;11.70;99.90;;;;;;4988419;28;20039;-72
2021/12/01 11:44:59;;;;;;;39.47;5.43;;;11.70;99.90;;;;;;4991246;28;20050;-71
2021/12/01 11:47:27;;;;;;;49.38;6.57;;;11.60;99.90;;;;;;4991300;28;20510;-70
2021/12/01 11:49:58;;;;;;;36.15;4.28;;;11.50;99.90;;;;;;4986831;28;20632;-70
2021/12/01 11:52:52;;;;;;;39.80;5.53;;;11.40;99.90;;;;;;4989063;28;20039;-71
2021/12/01 11:55:49;;;;;;;39.38;5.20;;;11.40;99.90;;;;;;4990600;28;20051;-72
2021/12/01 11:58:41;;;;;;;36.35;6.72;;;11.60;99.90;;;;;;4989951;28;20058;-71
2021/12/01 12:01:20;;;;;;;32.63;7.03;;;11.60;99.90;;;;;;4989183;28;20046;-72
2021/12/01 12:03:53;;;;;;;52.72;8.63;;;11.10;99.90;;;;;;4991217;28;20112;-71
2021/12/01 12:06:25;;;;;;;47.97;8.50;;;11.00;99.90;;;;;;4988601;28;20090;-72
2021/12/01 12:08:59;;;;;;;36.85;5.88;;;11.00;99.90;;;;;;4993895;28;20580;-74
2021/12/01 12:11:45;;;;;;;59.83;13.75;;;11.00;99.90;;;;;;4995296;28;20189;-70
2021/12/01 12:14:30;;;;;;;49.37;7.33;;;11.00;99.90;;;;;;4989992;28;20054;-72
2021/12/01 12:17:05;;;;;;;49.38;6.10;;;10.90;99.90;;;;;;4993433;28;20473;-71
2021/12/01 12:19:44;;;;;;;42.47;6.88;;;10.90;99.90;;;;;;4991937;28;20514;-72
2021/12/01 12:22:18;;;;;;;40.92;5.38;;;11.00;99.90;;;;;;4993645;28;20127;-72
2021/12/01 12:24:55;;;;;;;40.42;6.22;;;11.10;99.90;;;;;;4994403;28;20112;-73
2021/12/01 12:27:42;;;;;;;39.35;5.45;;;11.40;99.90;;;;;;4988679;28;20096;-70
2021/12/01 12:30:12;;;;;;;34.80;5.82;;;11.50;99.90;;;;;;4986636;28;20096;-71
2021/12/01 12:32:42;;;;;;;39.35;5.72;;;11.60;99.90;;;;;;4992169;28;20096;-71
2021/12/01 12:35:16;;;;;;;45.25;6.38;;;11.60;99.90;;;;;;4988052;28;20046;-70
2021/12/01 12:37:44;;;;;;;49.80;6.93;;;11.50;99.90;;;;;;4987218;28;20051;-72
2021/12/01 12:40:32;;;;;;;32.35;5.20;;;11.20;99.90;;;;;;4986513;28;20465;-70
2021/12/01 12:43:13;;;;;;;39.92;5.53;;;10.90;99.90;;;;;;4991770;28;20050;-72
2021/12/01 12:45:59;;;;;;;39.95;6.82;;;10.80;99.90;;;;;;4992887;28;20662;-70
2021/12/01 12:48:38;;;;;;;39.30;5.47;;;10.90;99.90;;;;;;4987109;28;20432;-72
2021/12/01 12:51:17;;;;;;;34.42;4.13;;;10.70;99.90;;;;;;4992749;28;20089;-70
2021/12/01 12:54:17;;;;;;;24.52;3.78;;;10.50;99.90;;;;;;4990412;28;20097;-72
2021/12/01 12:56:49;;;;;;;31.48;3.90;;;10.30;99.90;;;;;;4958228;28;20058;-71
2021/12/01 12:59:16;;;;;;;36.20;3.60;;;10.30;99.90;;;;;;4987218;28;20113;-70
2021/12/01 13:01:43;;;;;;;33.35;4.20;;;10.30;99.90;;;;;;4985570;28;20061;-72